Hakuho Maru — JDSS — position and weather

sailwx.info

Track history (hours):
 
Tides and Currents Weather Stations Pressure Air Temp Water Temp Dewpoint Dewpoint Depression Visibility Wind Speed Wind Dir Waves Ship Positions

Oceanographic research ship Hakuho Maru (Japan)

Detailed information on ship capabilities available from University of Delaware's Ocean Information Center.

Last reported at 2017-Aug-17 01:30 UTC. Time now 2017-Aug-17 01:46 UTC.
Position N 34°60' W 125°00'.

Length 100 m; beam 16.2 m; draft 6 m.

Type: Other ship. MMSI: 431010000.

Date/timePositionNaut miles runAvg speedWind from/ knotsBaromVisibWave heightAir tempDewpointWater temp
2017-Aug-17 01:30N 34°60' W 125°00'0 0.0
2017-Aug-16 22:42N 34°60' W 125°00'1 5.5
2017-Aug-16 22:29N 35°00' W 125°02'0 0.2
2017-Aug-16 20:14N 34°60' W 125°02'0 0.5
2017-Aug-16 19:48N 34°60' W 125°01'6510.7
2017-Aug-16 13:45N 36°04' W 124°50'914.8
2017-Aug-16 13:08N 36°13' W 124°48'214.6
2017-Aug-16 13:00N 36°15' W 124°48'714.6
2017-Aug-16 12:30N 36°22' W 124°46'2514.4
2017-Aug-16 10:47N 36°47' W 124°46'414.4
2017-Aug-16 10:29N 36°51' W 124°46'714.4
2017-Aug-16 09:58N 36°59' W 124°47'814.6
2017-Aug-16 09:24N 37°07' W 124°47'614.7
2017-Aug-16 09:00N 37°13' W 124°48'714.6
2017-Aug-16 08:30N 37°20' W 124°48'1014.8
2017-Aug-16 07:51N 37°30' W 124°49'615.1
2017-Aug-16 07:27N 37°36' W 124°49'715.1
2017-Aug-16 07:01N 37°42' W 124°50'815.1
2017-Aug-16 06:30N 37°50' W 124°50'815.2
2017-Aug-16 06:00N 37°58' W 124°51'815.5
2017-Aug-16 05:31N 38°05' W 124°51'815.4
2017-Aug-16 05:00N 38°13' W 124°52'916.4
2017-Aug-16 04:29N 38°22' W 124°53'1016.0
2017-Aug-16 03:52N 38°32' W 124°53'615.3
2017-Aug-16 03:29N 38°37' W 124°54'322 8.1
2017-Aug-14 11:38N 43°59' W 125°00'614.7
2017-Aug-14 11:16N 44°05' W 125°00'1414.6
2017-Aug-14 10:17N 44°19' W 125°00'514.8
2017-Aug-14 09:58N 44°24' W 125°00'1115.2
2017-Aug-14 09:14N 44°35' W 125°00'415.4
2017-Aug-14 08:58N 44°39' W 125°00'715.7
2017-Aug-14 08:30N 44°46' W 125°00'815.4
2017-Aug-14 07:57N 44°55' W 125°00'1014.6
2017-Aug-14 07:15N 45°05' W 125°01'4 2.7
2017-Aug-14 05:36N 45°00' W 125°01'1 2.8
2017-Aug-14 05:19N 44°60' W 125°01'0 1.0
2017-Aug-14 04:58N 44°59' W 125°01'0 0.4
2017-Aug-14 04:30N 44°60' W 125°01'0 0.5
2017-Aug-14 03:59N 44°60' W 125°01'0 0.4
2017-Aug-14 03:30N 44°60' W 125°01'0 0.0
2017-Aug-14 02:54N 44°60' W 125°01'0 0.1
2017-Aug-14 02:14N 44°60' W 125°01'0 0.2
2017-Aug-14 02:00N 44°60' W 125°00'0 0.3
2017-Aug-14 01:30N 45°00' W 125°00'0 0.2
2017-Aug-14 00:58N 45°00' W 125°00'0 0.3
2017-Aug-14 00:29N 44°60' W 125°00'1 1.8
2017-Aug-14 00:00N 44°59' W 125°01'0 0.1
2017-Aug-13 22:50N 44°59' W 125°01'0 0.4
2017-Aug-13 22:30N 44°59' W 125°00'0 0.4
2017-Aug-13 21:55N 44°60' W 125°00'0 0.5
2017-Aug-13 21:19N 44°60' W 125°00'0 0.2
2017-Aug-13 21:00N 44°60' W 125°00'813.3
2017-Aug-13 20:22N 45°08' W 125°02'514.6
2017-Aug-13 20:00N 45°13' W 125°04'714.5
2017-Aug-13 19:30N 45°20' W 125°06'714.5
2017-Aug-13 19:00N 45°27' W 125°08'714.5
2017-Aug-13 18:30N 45°34' W 125°10'714.4
2017-Aug-13 18:00N 45°42' W 125°12'714.4
2017-Aug-13 17:30N 45°49' W 125°14'714.7
2017-Aug-13 17:01N 45°56' W 125°16'714.5
2017-Aug-13 16:30N 46°03' W 125°18'814.7
2017-Aug-13 15:56N 46°11' W 125°21'614.8
2017-Aug-13 15:30N 46°17' W 125°22'714.6
2017-Aug-13 15:00N 46°25' W 125°25'714.8
2017-Aug-13 14:30N 46°32' W 125°27'714.8
2017-Aug-13 14:01N 46°39' W 125°29'714.8
2017-Aug-13 13:30N 46°46' W 125°31'814.8
2017-Aug-13 12:59N 46°54' W 125°33'714.5
2017-Aug-13 12:29N 47°01' W 125°35'8312.6
2017-Aug-13 05:55N 48°24' W 125°25'813.9
2017-Aug-13 05:23N 48°28' W 125°15'513.8
2017-Aug-13 05:00N 48°31' W 125°09'714.8
2017-Aug-13 04:30N 48°31' W 124°57'815.6
2017-Aug-13 04:00N 48°31' W 124°46'714.8
2017-Aug-13 03:31N 48°28' W 124°35'714.3
2017-Aug-13 03:01N 48°26' W 124°25'713.8
2017-Aug-13 02:30N 48°23' W 124°16'713.2
2017-Aug-13 02:00N 48°20' W 124°06'612.9
2017-Aug-13 01:30N 48°18' W 123°57'612.9
2017-Aug-13 01:00N 48°17' W 123°48'613.0
2017-Aug-13 00:30N 48°16' W 123°38'611.5
2017-Aug-13 00:00N 48°16' W 123°30'713.1
2017-Aug-12 23:30N 48°22' W 123°25'5 9.7
2017-Aug-12 23:00N 48°23' W 123°18'510.1
2017-Aug-12 22:30N 48°27' W 123°12'612.0
2017-Aug-12 22:00N 48°33' W 123°13'611.6
2017-Aug-12 21:30N 48°39' W 123°15'612.8
2017-Aug-12 21:00N 48°44' W 123°10'714.8
2017-Aug-12 20:30N 48°49' W 123°01'714.7
2017-Aug-12 20:00N 48°54' W 123°08'714.7
2017-Aug-12 19:30N 48°59' W 123°16'714.3
2017-Aug-12 19:00N 49°04' W 123°24'714.3
2017-Aug-12 18:30N 49°11' W 123°22'714.6
2017-Aug-12 18:00N 49°18' W 123°19'713.2
2017-Aug-12 17:30N 49°19' W 123°09'3 5.6
2017-Aug-12 16:59N 49°17' W 123°05'0 0.0
2017-Aug-12 16:26N 49°17' W 123°05'0 0.1
2017-Aug-12 15:59N 49°17' W 123°05'0 0.1
2017-Aug-12 15:29N 49°17' W 123°05'0 0.0
2017-Aug-12 14:59N 49°17' W 123°05'0 0.1
2017-Aug-12 14:29N 49°17' W 123°05'0 0.0
2017-Aug-12 13:59N 49°17' W 123°05'0 0.1
2017-Aug-12 13:29N 49°17' W 123°05'0 0.0
2017-Aug-12 12:56N 49°17' W 123°05'0 0.1
2017-Aug-12 12:26N 49°17' W 123°05'0 0.1
2017-Aug-12 11:56N 49°17' W 123°05'0 0.1
2017-Aug-12 11:26N 49°17' W 123°05'0 0.1
2017-Aug-12 10:59N 49°17' W 123°05'0 0.0
2017-Aug-12 10:29N 49°17' W 123°05'0 0.0
2017-Aug-12 09:59N 49°17' W 123°05'0 0.0
2017-Aug-12 09:26N 49°17' W 123°05'0 0.0
2017-Aug-12 08:59N 49°17' W 123°05'0 0.0
2017-Aug-12 08:29N 49°17' W 123°05'0 0.0
2017-Aug-12 07:59N 49°17' W 123°05'0 0.0
2017-Aug-12 07:29N 49°17' W 123°05'0 0.0
2017-Aug-12 06:59N 49°17' W 123°05'0 0.0
2017-Aug-12 06:29N 49°17' W 123°05'0 0.0
2017-Aug-12 05:59N 49°17' W 123°05'0 0.1
2017-Aug-12 05:29N 49°17' W 123°05'0 0.1
2017-Aug-12 04:59N 49°17' W 123°05'0 0.0
2017-Aug-12 04:29N 49°17' W 123°05'0 0.0
2017-Aug-12 03:56N 49°17' W 123°05'0 0.0
2017-Aug-12 03:29N 49°17' W 123°05'0 0.0
2017-Aug-12 02:59N 49°17' W 123°05'0 0.0
2017-Aug-12 02:26N 49°17' W 123°05'0 0.0
2017-Aug-12 01:59N 49°17' W 123°05'0 0.0
2017-Aug-12 01:29N 49°17' W 123°05'0 0.0
2017-Aug-12 00:59N 49°17' W 123°05'0 0.0
2017-Aug-12 00:29N 49°17' W 123°05'0 0.0
2017-Aug-11 23:59N 49°17' W 123°05'0 0.0
2017-Aug-11 23:26N 49°17' W 123°05'0 0.0
2017-Aug-11 22:59N 49°17' W 123°05'0 0.0
2017-Aug-11 22:29N 49°17' W 123°05'0 0.0
2017-Aug-11 21:59N 49°17' W 123°05'0 0.0
2017-Aug-11 21:26N 49°17' W 123°05'0 0.0
2017-Aug-11 20:59N 49°17' W 123°05'0 0.1
2017-Aug-11 20:26N 49°17' W 123°05'0 0.1
2017-Aug-11 19:56N 49°17' W 123°05'0 0.0
2017-Aug-11 19:29N 49°17' W 123°05'0 0.0
2017-Aug-11 18:56N 49°17' W 123°05'0 0.1
2017-Aug-11 18:26N 49°17' W 123°05'0 0.1
2017-Aug-11 17:56N 49°17' W 123°05'0 0.1
2017-Aug-11 17:29N 49°17' W 123°05'0 0.1
2017-Aug-11 16:59N 49°17' W 123°05'0 0.0
2017-Aug-11 16:29N 49°17' W 123°05'0 0.0
2017-Aug-11 15:59N 49°17' W 123°05'0 0.1
2017-Aug-11 15:29N 49°17' W 123°05'0 0.1
2017-Aug-11 14:59N 49°17' W 123°05'0 0.1
2017-Aug-11 14:29N 49°17' W 123°05'0 0.0
2017-Aug-11 13:29N 49°17' W 123°05'0 0.1
2017-Aug-11 12:59N 49°17' W 123°05'0 0.1
2017-Aug-11 12:29N 49°17' W 123°05'0 0.1
2017-Aug-11 11:59N 49°17' W 123°05'0 0.1
2017-Aug-11 11:29N 49°17' W 123°05'0 0.0
2017-Aug-11 10:59N 49°17' W 123°05'0 0.0
2017-Aug-11 10:29N 49°17' W 123°05'0 0.0
2017-Aug-11 09:59N 49°17' W 123°05'0 0.1
2017-Aug-11 09:29N 49°17' W 123°05'0 0.1
2017-Aug-11 08:59N 49°17' W 123°05'0 0.0
2017-Aug-11 08:29N 49°17' W 123°05'0 0.0
2017-Aug-11 07:59N 49°17' W 123°05'0 0.1
2017-Aug-11 07:29N 49°17' W 123°05'0 0.1
2017-Aug-11 06:59N 49°17' W 123°05'0 0.1
2017-Aug-11 06:29N 49°17' W 123°05'0 0.1
2017-Aug-11 05:59N 49°17' W 123°05'0 0.1
2017-Aug-11 05:29N 49°17' W 123°05'0 0.1
2017-Aug-11 04:59N 49°17' W 123°05'0 0.1
2017-Aug-11 04:29N 49°17' W 123°05'0 0.1
2017-Aug-11 03:59N 49°17' W 123°05'0 0.1
2017-Aug-11 03:29N 49°17' W 123°05'0 0.1
2017-Aug-11 02:59N 49°17' W 123°05'0 0.0
2017-Aug-11 02:29N 49°17' W 123°05'0 0.1
2017-Aug-11 01:59N 49°17' W 123°05'0 0.0
2017-Aug-11 01:29N 49°17' W 123°05'0 0.0
2017-Aug-11 00:59N 49°17' W 123°05'0 0.1
2017-Aug-11 00:29N 49°17' W 123°05'0 0.0
2017-Aug-10 23:59N 49°17' W 123°05'0 0.1
2017-Aug-10 23:26N 49°17' W 123°05'0 0.0
2017-Aug-10 22:56N 49°17' W 123°05'0 0.1
2017-Aug-10 22:29N 49°17' W 123°05'0 0.0
2017-Aug-10 21:56N 49°17' W 123°05'0 0.1
2017-Aug-10 21:29N 49°17' W 123°05'0 0.1
2017-Aug-10 20:56N 49°17' W 123°05'0 0.0
2017-Aug-10 20:29N 49°17' W 123°05'0 0.0
2017-Aug-10 19:56N 49°17' W 123°05'0 0.1
2017-Aug-10 19:26N 49°17' W 123°05'0 0.1
2017-Aug-10 18:59N 49°17' W 123°05'0 0.0
2017-Aug-10 18:26N 49°17' W 123°05'0 0.1
2017-Aug-10 17:59N 49°17' W 123°05'0 0.0
2017-Aug-10 17:29N 49°17' W 123°05'0 0.1
2017-Aug-10 16:59N 49°17' W 123°05'0 0.1
2017-Aug-10 16:29N 49°17' W 123°05'0 0.1
2017-Aug-10 15:59N 49°17' W 123°05'0 0.1
2017-Aug-10 15:29N 49°17' W 123°05'0 0.1
2017-Aug-10 14:59N 49°17' W 123°05'0 0.0
2017-Aug-10 14:29N 49°17' W 123°05'0 0.0
2017-Aug-10 13:56N 49°17' W 123°05'0 0.0
2017-Aug-10 13:29N 49°17' W 123°05'0 0.0
2017-Aug-10 12:59N 49°17' W 123°05'0 0.0
2017-Aug-10 12:29N 49°17' W 123°05'0 0.0
2017-Aug-10 11:59N 49°17' W 123°05'0 0.1
2017-Aug-10 11:29N 49°17' W 123°05'0 0.1
2017-Aug-10 10:59N 49°17' W 123°05'0 0.0
2017-Aug-10 10:29N 49°17' W 123°05'0 0.0
2017-Aug-10 09:59N 49°17' W 123°05'0 0.0
2017-Aug-10 09:29N 49°17' W 123°05'0 0.0
2017-Aug-10 08:59N 49°17' W 123°05'0 0.0
2017-Aug-10 08:29N 49°17' W 123°05'0 0.0
2017-Aug-10 07:59N 49°17' W 123°05'0 0.0
2017-Aug-10 07:29N 49°17' W 123°05'0 0.0
2017-Aug-10 06:59N 49°17' W 123°05'0 0.0
2017-Aug-10 06:29N 49°17' W 123°05'0 0.0
2017-Aug-10 05:59N 49°17' W 123°05'0 0.0
2017-Aug-10 05:29N 49°17' W 123°05'0 0.0
2017-Aug-10 04:59N 49°17' W 123°05'0 0.0
2017-Aug-10 04:29N 49°17' W 123°05'0 0.0
2017-Aug-10 03:56N 49°17' W 123°05'0 0.0
2017-Aug-10 03:29N 49°17' W 123°05'0 0.0
2017-Aug-10 02:59N 49°17' W 123°05'0 0.0
2017-Aug-10 02:29N 49°17' W 123°05'0 0.0
2017-Aug-10 01:59N 49°17' W 123°05'0 0.0
2017-Aug-10 01:29N 49°17' W 123°05'0 0.0
2017-Aug-10 00:59N 49°17' W 123°05'0 0.0
2017-Aug-10 00:29N 49°17' W 123°05'0 0.0
2017-Aug-09 23:56N 49°17' W 123°05'0 0.0
2017-Aug-09 23:29N 49°17' W 123°05'0 0.0
2017-Aug-09 22:59N 49°17' W 123°05'0 0.0
2017-Aug-09 22:29N 49°17' W 123°05'0 0.0
2017-Aug-09 21:59N 49°17' W 123°05'0 0.0
2017-Aug-09 21:29N 49°17' W 123°05'0 0.0
2017-Aug-09 20:59N 49°17' W 123°05'0 0.0
2017-Aug-09 20:29N 49°17' W 123°05'0 0.1
2017-Aug-09 19:59N 49°17' W 123°05'0 0.0
2017-Aug-09 19:29N 49°17' W 123°05'0 0.1
2017-Aug-09 18:59N 49°17' W 123°05'0 0.0
2017-Aug-09 18:29N 49°17' W 123°05'0 0.0
2017-Aug-09 17:59N 49°17' W 123°05'0 0.1
2017-Aug-09 17:29N 49°17' W 123°05'0 0.1
2017-Aug-09 16:59N 49°17' W 123°05'0 0.0
2017-Aug-09 16:29N 49°17' W 123°05'0 0.1
2017-Aug-09 15:59N 49°17' W 123°05'0 0.0
2017-Aug-09 15:29N 49°17' W 123°05'0 0.1
2017-Aug-09 14:59N 49°17' W 123°05'0 0.0
2017-Aug-09 14:29N 49°17' W 123°05'0 0.0
2017-Aug-09 13:59N 49°17' W 123°05'0 0.0
2017-Aug-09 13:29N 49°17' W 123°05'0 0.0
2017-Aug-09 12:59N 49°17' W 123°05'0 0.0
2017-Aug-09 12:29N 49°17' W 123°05'0 0.1
2017-Aug-09 11:59N 49°17' W 123°05'0 0.0
2017-Aug-09 11:29N 49°17' W 123°05'0 0.1
2017-Aug-09 10:59N 49°17' W 123°05'0 0.0
2017-Aug-09 10:29N 49°17' W 123°05'0 0.0
2017-Aug-09 09:59N 49°17' W 123°05'0 0.0
2017-Aug-09 09:29N 49°17' W 123°05'0 0.0
2017-Aug-09 08:59N 49°17' W 123°05'0 0.0
2017-Aug-09 08:29N 49°17' W 123°05'0 0.0
2017-Aug-09 07:59N 49°17' W 123°05'0 0.0
2017-Aug-09 07:29N 49°17' W 123°05'0 0.0
2017-Aug-09 06:59N 49°17' W 123°05'0 0.0
2017-Aug-09 06:29N 49°17' W 123°05'0 0.0
2017-Aug-09 05:59N 49°17' W 123°05'0 0.1
2017-Aug-09 05:29N 49°17' W 123°05'0 0.1
2017-Aug-09 04:59N 49°17' W 123°05'0 0.0
2017-Aug-09 04:29N 49°17' W 123°05'0 0.1
2017-Aug-09 03:59N 49°17' W 123°05'0 0.0
2017-Aug-09 03:29N 49°17' W 123°05'0 0.1
2017-Aug-09 02:59N 49°17' W 123°05'0 0.0
2017-Aug-09 02:29N 49°17' W 123°05'0 0.1
2017-Aug-09 01:59N 49°17' W 123°05'0 0.0
2017-Aug-09 01:29N 49°17' W 123°05'0 0.0
2017-Aug-09 00:59N 49°17' W 123°05'0 0.1
2017-Aug-09 00:29N 49°17' W 123°05'0 0.0
2017-Aug-08 23:59N 49°17' W 123°05'0 0.1
2017-Aug-08 23:29N 49°17' W 123°05'0 0.1
2017-Aug-08 22:59N 49°17' W 123°05'0 0.0
2017-Aug-08 22:29N 49°17' W 123°05'0 0.0
2017-Aug-08 21:59N 49°17' W 123°05'0 0.0
2017-Aug-08 21:29N 49°17' W 123°05'0 0.0
2017-Aug-08 20:59N 49°17' W 123°05'0 0.0
2017-Aug-08 20:29N 49°17' W 123°05'0 0.1
2017-Aug-08 19:59N 49°17' W 123°05'0 0.1
2017-Aug-08 19:29N 49°17' W 123°05'0 0.1
2017-Aug-08 18:59N 49°17' W 123°05'0 0.1
2017-Aug-08 18:29N 49°17' W 123°05'0 0.0
2017-Aug-08 17:59N 49°17' W 123°05'0 0.1
2017-Aug-08 17:29N 49°17' W 123°05'0 0.1
2017-Aug-08 16:59N 49°17' W 123°05'0 0.0
2017-Aug-08 16:29N 49°17' W 123°05'0 0.0
2017-Aug-08 15:59N 49°17' W 123°05'0 0.1
2017-Aug-08 15:29N 49°17' W 123°05'0 0.1
2017-Aug-08 14:59N 49°17' W 123°05'0 0.0
2017-Aug-08 14:29N 49°17' W 123°05'0 0.0
2017-Aug-08 13:59N 49°17' W 123°05'0 0.0
2017-Aug-08 13:29N 49°17' W 123°05'0 0.0
2017-Aug-08 12:59N 49°17' W 123°05'0 0.1
2017-Aug-08 12:29N 49°17' W 123°05'0 0.1
2017-Aug-08 11:59N 49°17' W 123°05'0 0.1
2017-Aug-08 11:29N 49°17' W 123°05'0 0.1
2017-Aug-08 10:59N 49°17' W 123°05'0 0.0
2017-Aug-08 10:29N 49°17' W 123°05'0 0.1
2017-Aug-08 09:59N 49°17' W 123°05'0 0.0
2017-Aug-08 09:29N 49°17' W 123°05'0 0.1
2017-Aug-08 08:59N 49°17' W 123°05'0 0.0
2017-Aug-08 08:29N 49°17' W 123°05'0 0.1
2017-Aug-08 07:59N 49°17' W 123°05'0 0.1
2017-Aug-08 07:29N 49°17' W 123°05'0 0.0
2017-Aug-08 06:59N 49°17' W 123°05'0 0.1
2017-Aug-08 06:29N 49°17' W 123°05'0 0.0
2017-Aug-08 05:59N 49°17' W 123°05'0 0.0
2017-Aug-08 05:29N 49°17' W 123°05'0 0.1
2017-Aug-08 04:59N 49°17' W 123°05'0 0.1
2017-Aug-08 04:29N 49°17' W 123°05'0 0.1
2017-Aug-08 03:59N 49°17' W 123°05'0 0.0
2017-Aug-08 03:29N 49°17' W 123°05'0 0.0
2017-Aug-08 02:59N 49°17' W 123°05'0 0.0
2017-Aug-08 02:29N 49°17' W 123°05'0 0.0
2017-Aug-08 01:59N 49°17' W 123°05'0 0.1
2017-Aug-08 01:29N 49°17' W 123°05'0 0.1
2017-Aug-08 00:59N 49°17' W 123°05'0 0.1
2017-Aug-08 00:29N 49°17' W 123°05'0 0.1
2017-Aug-07 23:59N 49°17' W 123°05'0 0.0
2017-Aug-07 23:29N 49°17' W 123°05'0 0.1
2017-Aug-07 22:59N 49°17' W 123°05'0 0.1
2017-Aug-07 22:30N 49°17' W 123°05'1 1.0
2017-Aug-07 22:00N 49°18' W 123°06'1 1.2
2017-Aug-07 21:30N 49°18' W 123°06'2 4.8
2017-Aug-07 21:00N 49°19' W 123°10'611.6
2017-Aug-07 20:30N 49°16' W 123°18'815.2
2017-Aug-07 20:00N 49°09' W 123°20'713.1
2017-Aug-07 19:30N 49°02' W 123°18'714.0
2017-Aug-07 19:01N 48°58' W 123°11'713.8
2017-Aug-07 18:30N 48°53' W 123°03'612.5
2017-Aug-07 18:00N 48°47' W 123°01'611.6
2017-Aug-07 17:30N 48°44' W 123°09'510.8
2017-Aug-07 17:00N 48°40' W 123°14'612.0
2017-Aug-07 16:31N 48°34' W 123°12'510.9
2017-Aug-07 16:00N 48°29' W 123°10'510.6
2017-Aug-07 15:31N 48°24' W 123°13'612.2
2017-Aug-07 15:01N 48°22' W 123°22'3 5.3
2017-Aug-07 14:31N 48°20' W 123°24'5 9.7
2017-Aug-07 14:00N 48°15' W 123°27'612.3
2017-Aug-07 13:29N 48°14' W 123°36'612.9
2017-Aug-07 13:00N 48°14' W 123°46'713.0
2017-Aug-07 12:30N 48°14' W 123°55'613.0
2017-Aug-07 12:00N 48°16' W 124°04'613.0
2017-Aug-07 11:30N 48°19' W 124°13'713.2
2017-Aug-07 11:00N 48°22' W 124°22'713.0
2017-Aug-07 10:30N 48°25' W 124°31'612.8
2017-Aug-07 10:00N 48°27' W 124°40'612.5
2017-Aug-07 09:30N 48°29' W 124°49'713.1
2017-Aug-07 09:00N 48°29' W 124°59'613.0
2017-Aug-07 08:30N 48°28' W 125°09'611.4
2017-Aug-07 08:00N 48°26' W 125°17'510.9
2017-Aug-07 07:30N 48°24' W 125°24'3 4.3
2017-Aug-07 06:54N 48°24' W 125°28'0 1.0
2017-Aug-07 06:30N 48°24' W 125°28'0 0.6
2017-Aug-07 05:59N 48°24' W 125°29'2 3.4
2017-Aug-07 05:30N 48°22' W 125°28'0 0.7
2017-Aug-07 05:00N 48°22' W 125°29'1 1.2
2017-Aug-07 04:30N 48°23' W 125°29'1 1.2
2017-Aug-07 04:00N 48°23' W 125°30'1 1.3
2017-Aug-07 03:29N 48°24' W 125°31'0 1.0
2017-Aug-07 03:00N 48°23' W 125°30'2 3.9
2017-Aug-07 02:30N 48°22' W 125°29'1 1.5
2017-Aug-07 02:00N 48°22' W 125°29'1 1.6
2017-Aug-07 01:30N 48°23' W 125°30'  
Track history (hours):
 
Tides and Currents Weather Stations Pressure Air Temp Water Temp Dewpoint Dewpoint Depression Visibility Wind Speed Wind Dir Waves Ship Positions

Oceanographic research ship Hakuho Maru (Japan)

Detailed information on ship capabilities available from University of Delaware's Ocean Information Center.

Last reported at 2017-Aug-17 01:30 UTC. Time now 2017-Aug-17 01:46 UTC.
Position N 34°60' W 125°00'.

Length 100 m; beam 16.2 m; draft 6 m.

Type: Other ship. MMSI: 431010000.

Date/timePositionNaut miles runAvg speedWind from/ knotsBaromVisibWave heightAir tempDewpointWater temp
2017-Aug-17 01:30N 34°60' W 125°00'0 0.0
2017-Aug-16 22:42N 34°60' W 125°00'1 5.5
2017-Aug-16 22:29N 35°00' W 125°02'0 0.2
2017-Aug-16 20:14N 34°60' W 125°02'0 0.5
2017-Aug-16 19:48N 34°60' W 125°01'6510.7
2017-Aug-16 13:45N 36°04' W 124°50'914.8
2017-Aug-16 13:08N 36°13' W 124°48'214.6
2017-Aug-16 13:00N 36°15' W 124°48'714.6
2017-Aug-16 12:30N 36°22' W 124°46'2514.4
2017-Aug-16 10:47N 36°47' W 124°46'414.4
2017-Aug-16 10:29N 36°51' W 124°46'714.4
2017-Aug-16 09:58N 36°59' W 124°47'814.6
2017-Aug-16 09:24N 37°07' W 124°47'614.7
2017-Aug-16 09:00N 37°13' W 124°48'714.6
2017-Aug-16 08:30N 37°20' W 124°48'1014.8
2017-Aug-16 07:51N 37°30' W 124°49'615.1
2017-Aug-16 07:27N 37°36' W 124°49'715.1
2017-Aug-16 07:01N 37°42' W 124°50'815.1
2017-Aug-16 06:30N 37°50' W 124°50'815.2
2017-Aug-16 06:00N 37°58' W 124°51'815.5
2017-Aug-16 05:31N 38°05' W 124°51'815.4
2017-Aug-16 05:00N 38°13' W 124°52'916.4
2017-Aug-16 04:29N 38°22' W 124°53'1016.0
2017-Aug-16 03:52N 38°32' W 124°53'615.3
2017-Aug-16 03:29N 38°37' W 124°54'322 8.1
2017-Aug-14 11:38N 43°59' W 125°00'614.7
2017-Aug-14 11:16N 44°05' W 125°00'1414.6
2017-Aug-14 10:17N 44°19' W 125°00'514.8
2017-Aug-14 09:58N 44°24' W 125°00'1115.2
2017-Aug-14 09:14N 44°35' W 125°00'415.4
2017-Aug-14 08:58N 44°39' W 125°00'715.7
2017-Aug-14 08:30N 44°46' W 125°00'815.4
2017-Aug-14 07:57N 44°55' W 125°00'1014.6
2017-Aug-14 07:15N 45°05' W 125°01'4 2.7
2017-Aug-14 05:36N 45°00' W 125°01'1 2.8
2017-Aug-14 05:19N 44°60' W 125°01'0 1.0
2017-Aug-14 04:58N 44°59' W 125°01'0 0.4
2017-Aug-14 04:30N 44°60' W 125°01'0 0.5
2017-Aug-14 03:59N 44°60' W 125°01'0 0.4
2017-Aug-14 03:30N 44°60' W 125°01'0 0.0
2017-Aug-14 02:54N 44°60' W 125°01'0 0.1
2017-Aug-14 02:14N 44°60' W 125°01'0 0.2
2017-Aug-14 02:00N 44°60' W 125°00'0 0.3
2017-Aug-14 01:30N 45°00' W 125°00'0 0.2
2017-Aug-14 00:58N 45°00' W 125°00'0 0.3
2017-Aug-14 00:29N 44°60' W 125°00'1 1.8
2017-Aug-14 00:00N 44°59' W 125°01'0 0.1
2017-Aug-13 22:50N 44°59' W 125°01'0 0.4
2017-Aug-13 22:30N 44°59' W 125°00'0 0.4
2017-Aug-13 21:55N 44°60' W 125°00'0 0.5
2017-Aug-13 21:19N 44°60' W 125°00'0 0.2
2017-Aug-13 21:00N 44°60' W 125°00'813.3
2017-Aug-13 20:22N 45°08' W 125°02'514.6
2017-Aug-13 20:00N 45°13' W 125°04'714.5
2017-Aug-13 19:30N 45°20' W 125°06'714.5
2017-Aug-13 19:00N 45°27' W 125°08'714.5
2017-Aug-13 18:30N 45°34' W 125°10'714.4
2017-Aug-13 18:00N 45°42' W 125°12'714.4
2017-Aug-13 17:30N 45°49' W 125°14'714.7
2017-Aug-13 17:01N 45°56' W 125°16'714.5
2017-Aug-13 16:30N 46°03' W 125°18'814.7
2017-Aug-13 15:56N 46°11' W 125°21'614.8
2017-Aug-13 15:30N 46°17' W 125°22'714.6
2017-Aug-13 15:00N 46°25' W 125°25'714.8
2017-Aug-13 14:30N 46°32' W 125°27'714.8
2017-Aug-13 14:01N 46°39' W 125°29'714.8
2017-Aug-13 13:30N 46°46' W 125°31'814.8
2017-Aug-13 12:59N 46°54' W 125°33'714.5
2017-Aug-13 12:29N 47°01' W 125°35'8312.6
2017-Aug-13 05:55N 48°24' W 125°25'813.9
2017-Aug-13 05:23N 48°28' W 125°15'513.8
2017-Aug-13 05:00N 48°31' W 125°09'714.8
2017-Aug-13 04:30N 48°31' W 124°57'815.6
2017-Aug-13 04:00N 48°31' W 124°46'714.8
2017-Aug-13 03:31N 48°28' W 124°35'714.3
2017-Aug-13 03:01N 48°26' W 124°25'713.8
2017-Aug-13 02:30N 48°23' W 124°16'713.2
2017-Aug-13 02:00N 48°20' W 124°06'612.9
2017-Aug-13 01:30N 48°18' W 123°57'612.9
2017-Aug-13 01:00N 48°17' W 123°48'613.0
2017-Aug-13 00:30N 48°16' W 123°38'611.5
2017-Aug-13 00:00N 48°16' W 123°30'713.1
2017-Aug-12 23:30N 48°22' W 123°25'5 9.7
2017-Aug-12 23:00N 48°23' W 123°18'510.1
2017-Aug-12 22:30N 48°27' W 123°12'612.0
2017-Aug-12 22:00N 48°33' W 123°13'611.6
2017-Aug-12 21:30N 48°39' W 123°15'612.8
2017-Aug-12 21:00N 48°44' W 123°10'714.8
2017-Aug-12 20:30N 48°49' W 123°01'714.7
2017-Aug-12 20:00N 48°54' W 123°08'714.7
2017-Aug-12 19:30N 48°59' W 123°16'714.3
2017-Aug-12 19:00N 49°04' W 123°24'714.3
2017-Aug-12 18:30N 49°11' W 123°22'714.6
2017-Aug-12 18:00N 49°18' W 123°19'713.2
2017-Aug-12 17:30N 49°19' W 123°09'3 5.6
2017-Aug-12 16:59N 49°17' W 123°05'0 0.0
2017-Aug-12 16:26N 49°17' W 123°05'0 0.1
2017-Aug-12 15:59N 49°17' W 123°05'0 0.1
2017-Aug-12 15:29N 49°17' W 123°05'0 0.0
2017-Aug-12 14:59N 49°17' W 123°05'0 0.1
2017-Aug-12 14:29N 49°17' W 123°05'0 0.0
2017-Aug-12 13:59N 49°17' W 123°05'0 0.1
2017-Aug-12 13:29N 49°17' W 123°05'0 0.0
2017-Aug-12 12:56N 49°17' W 123°05'0 0.1
2017-Aug-12 12:26N 49°17' W 123°05'0 0.1
2017-Aug-12 11:56N 49°17' W 123°05'0 0.1
2017-Aug-12 11:26N 49°17' W 123°05'0 0.1
2017-Aug-12 10:59N 49°17' W 123°05'0 0.0
2017-Aug-12 10:29N 49°17' W 123°05'0 0.0
2017-Aug-12 09:59N 49°17' W 123°05'0 0.0
2017-Aug-12 09:26N 49°17' W 123°05'0 0.0
2017-Aug-12 08:59N 49°17' W 123°05'0 0.0
2017-Aug-12 08:29N 49°17' W 123°05'0 0.0
2017-Aug-12 07:59N 49°17' W 123°05'0 0.0
2017-Aug-12 07:29N 49°17' W 123°05'0 0.0
2017-Aug-12 06:59N 49°17' W 123°05'0 0.0
2017-Aug-12 06:29N 49°17' W 123°05'0 0.0
2017-Aug-12 05:59N 49°17' W 123°05'0 0.1
2017-Aug-12 05:29N 49°17' W 123°05'0 0.1
2017-Aug-12 04:59N 49°17' W 123°05'0 0.0
2017-Aug-12 04:29N 49°17' W 123°05'0 0.0
2017-Aug-12 03:56N 49°17' W 123°05'0 0.0
2017-Aug-12 03:29N 49°17' W 123°05'0 0.0
2017-Aug-12 02:59N 49°17' W 123°05'0 0.0
2017-Aug-12 02:26N 49°17' W 123°05'0 0.0
2017-Aug-12 01:59N 49°17' W 123°05'0 0.0
2017-Aug-12 01:29N 49°17' W 123°05'0 0.0
2017-Aug-12 00:59N 49°17' W 123°05'0 0.0
2017-Aug-12 00:29N 49°17' W 123°05'0 0.0
2017-Aug-11 23:59N 49°17' W 123°05'0 0.0
2017-Aug-11 23:26N 49°17' W 123°05'0 0.0
2017-Aug-11 22:59N 49°17' W 123°05'0 0.0
2017-Aug-11 22:29N 49°17' W 123°05'0 0.0
2017-Aug-11 21:59N 49°17' W 123°05'0 0.0
2017-Aug-11 21:26N 49°17' W 123°05'0 0.0
2017-Aug-11 20:59N 49°17' W 123°05'0 0.1
2017-Aug-11 20:26N 49°17' W 123°05'0 0.1
2017-Aug-11 19:56N 49°17' W 123°05'0 0.0
2017-Aug-11 19:29N 49°17' W 123°05'0 0.0
2017-Aug-11 18:56N 49°17' W 123°05'0 0.1
2017-Aug-11 18:26N 49°17' W 123°05'0 0.1
2017-Aug-11 17:56N 49°17' W 123°05'0 0.1
2017-Aug-11 17:29N 49°17' W 123°05'0 0.1
2017-Aug-11 16:59N 49°17' W 123°05'0 0.0
2017-Aug-11 16:29N 49°17' W 123°05'0 0.0
2017-Aug-11 15:59N 49°17' W 123°05'0 0.1
2017-Aug-11 15:29N 49°17' W 123°05'0 0.1
2017-Aug-11 14:59N 49°17' W 123°05'0 0.1
2017-Aug-11 14:29N 49°17' W 123°05'0 0.0
2017-Aug-11 13:29N 49°17' W 123°05'0 0.1
2017-Aug-11 12:59N 49°17' W 123°05'0 0.1
2017-Aug-11 12:29N 49°17' W 123°05'0 0.1
2017-Aug-11 11:59N 49°17' W 123°05'0 0.1
2017-Aug-11 11:29N 49°17' W 123°05'0 0.0
2017-Aug-11 10:59N 49°17' W 123°05'0 0.0
2017-Aug-11 10:29N 49°17' W 123°05'0 0.0
2017-Aug-11 09:59N 49°17' W 123°05'0 0.1
2017-Aug-11 09:29N 49°17' W 123°05'0 0.1
2017-Aug-11 08:59N 49°17' W 123°05'0 0.0
2017-Aug-11 08:29N 49°17' W 123°05'0 0.0
2017-Aug-11 07:59N 49°17' W 123°05'0 0.1
2017-Aug-11 07:29N 49°17' W 123°05'0 0.1
2017-Aug-11 06:59N 49°17' W 123°05'0 0.1
2017-Aug-11 06:29N 49°17' W 123°05'0 0.1
2017-Aug-11 05:59N 49°17' W 123°05'0 0.1
2017-Aug-11 05:29N 49°17' W 123°05'0 0.1
2017-Aug-11 04:59N 49°17' W 123°05'0 0.1
2017-Aug-11 04:29N 49°17' W 123°05'0 0.1
2017-Aug-11 03:59N 49°17' W 123°05'0 0.1
2017-Aug-11 03:29N 49°17' W 123°05'0 0.1
2017-Aug-11 02:59N 49°17' W 123°05'0 0.0
2017-Aug-11 02:29N 49°17' W 123°05'0 0.1
2017-Aug-11 01:59N 49°17' W 123°05'0 0.0
2017-Aug-11 01:29N 49°17' W 123°05'0 0.0
2017-Aug-11 00:59N 49°17' W 123°05'0 0.1
2017-Aug-11 00:29N 49°17' W 123°05'0 0.0
2017-Aug-10 23:59N 49°17' W 123°05'0 0.1
2017-Aug-10 23:26N 49°17' W 123°05'0 0.0
2017-Aug-10 22:56N 49°17' W 123°05'0 0.1
2017-Aug-10 22:29N 49°17' W 123°05'0 0.0
2017-Aug-10 21:56N 49°17' W 123°05'0 0.1
2017-Aug-10 21:29N 49°17' W 123°05'0 0.1
2017-Aug-10 20:56N 49°17' W 123°05'0 0.0
2017-Aug-10 20:29N 49°17' W 123°05'0 0.0
2017-Aug-10 19:56N 49°17' W 123°05'0 0.1
2017-Aug-10 19:26N 49°17' W 123°05'0 0.1
2017-Aug-10 18:59N 49°17' W 123°05'0 0.0
2017-Aug-10 18:26N 49°17' W 123°05'0 0.1
2017-Aug-10 17:59N 49°17' W 123°05'0 0.0
2017-Aug-10 17:29N 49°17' W 123°05'0 0.1
2017-Aug-10 16:59N 49°17' W 123°05'0 0.1
2017-Aug-10 16:29N 49°17' W 123°05'0 0.1
2017-Aug-10 15:59N 49°17' W 123°05'0 0.1
2017-Aug-10 15:29N 49°17' W 123°05'0 0.1
2017-Aug-10 14:59N 49°17' W 123°05'0 0.0
2017-Aug-10 14:29N 49°17' W 123°05'0 0.0
2017-Aug-10 13:56N 49°17' W 123°05'0 0.0
2017-Aug-10 13:29N 49°17' W 123°05'0 0.0
2017-Aug-10 12:59N 49°17' W 123°05'0 0.0
2017-Aug-10 12:29N 49°17' W 123°05'0 0.0
2017-Aug-10 11:59N 49°17' W 123°05'0 0.1
2017-Aug-10 11:29N 49°17' W 123°05'0 0.1
2017-Aug-10 10:59N 49°17' W 123°05'0 0.0
2017-Aug-10 10:29N 49°17' W 123°05'0 0.0
2017-Aug-10 09:59N 49°17' W 123°05'0 0.0
2017-Aug-10 09:29N 49°17' W 123°05'0 0.0
2017-Aug-10 08:59N 49°17' W 123°05'0 0.0
2017-Aug-10 08:29N 49°17' W 123°05'0 0.0
2017-Aug-10 07:59N 49°17' W 123°05'0 0.0
2017-Aug-10 07:29N 49°17' W 123°05'0 0.0
2017-Aug-10 06:59N 49°17' W 123°05'0 0.0
2017-Aug-10 06:29N 49°17' W 123°05'0 0.0
2017-Aug-10 05:59N 49°17' W 123°05'0 0.0
2017-Aug-10 05:29N 49°17' W 123°05'0 0.0
2017-Aug-10 04:59N 49°17' W 123°05'0 0.0
2017-Aug-10 04:29N 49°17' W 123°05'0 0.0
2017-Aug-10 03:56N 49°17' W 123°05'0 0.0
2017-Aug-10 03:29N 49°17' W 123°05'0 0.0
2017-Aug-10 02:59N 49°17' W 123°05'0 0.0
2017-Aug-10 02:29N 49°17' W 123°05'0 0.0
2017-Aug-10 01:59N 49°17' W 123°05'0 0.0
2017-Aug-10 01:29N 49°17' W 123°05'0 0.0
2017-Aug-10 00:59N 49°17' W 123°05'0 0.0
2017-Aug-10 00:29N 49°17' W 123°05'0 0.0
2017-Aug-09 23:56N 49°17' W 123°05'0 0.0
2017-Aug-09 23:29N 49°17' W 123°05'0 0.0
2017-Aug-09 22:59N 49°17' W 123°05'0 0.0
2017-Aug-09 22:29N 49°17' W 123°05'0 0.0
2017-Aug-09 21:59N 49°17' W 123°05'0 0.0
2017-Aug-09 21:29N 49°17' W 123°05'0 0.0
2017-Aug-09 20:59N 49°17' W 123°05'0 0.0
2017-Aug-09 20:29N 49°17' W 123°05'0 0.1
2017-Aug-09 19:59N 49°17' W 123°05'0 0.0
2017-Aug-09 19:29N 49°17' W 123°05'0 0.1
2017-Aug-09 18:59N 49°17' W 123°05'0 0.0
2017-Aug-09 18:29N 49°17' W 123°05'0 0.0
2017-Aug-09 17:59N 49°17' W 123°05'0 0.1
2017-Aug-09 17:29N 49°17' W 123°05'0 0.1
2017-Aug-09 16:59N 49°17' W 123°05'0 0.0
2017-Aug-09 16:29N 49°17' W 123°05'0 0.1
2017-Aug-09 15:59N 49°17' W 123°05'0 0.0
2017-Aug-09 15:29N 49°17' W 123°05'0 0.1
2017-Aug-09 14:59N 49°17' W 123°05'0 0.0
2017-Aug-09 14:29N 49°17' W 123°05'0 0.0
2017-Aug-09 13:59N 49°17' W 123°05'0 0.0
2017-Aug-09 13:29N 49°17' W 123°05'0 0.0
2017-Aug-09 12:59N 49°17' W 123°05'0 0.0
2017-Aug-09 12:29N 49°17' W 123°05'0 0.1
2017-Aug-09 11:59N 49°17' W 123°05'0 0.0
2017-Aug-09 11:29N 49°17' W 123°05'0 0.1
2017-Aug-09 10:59N 49°17' W 123°05'0 0.0
2017-Aug-09 10:29N 49°17' W 123°05'0 0.0
2017-Aug-09 09:59N 49°17' W 123°05'0 0.0
2017-Aug-09 09:29N 49°17' W 123°05'0 0.0
2017-Aug-09 08:59N 49°17' W 123°05'0 0.0
2017-Aug-09 08:29N 49°17' W 123°05'0 0.0
2017-Aug-09 07:59N 49°17' W 123°05'0 0.0
2017-Aug-09 07:29N 49°17' W 123°05'0 0.0
2017-Aug-09 06:59N 49°17' W 123°05'0 0.0
2017-Aug-09 06:29N 49°17' W 123°05'0 0.0
2017-Aug-09 05:59N 49°17' W 123°05'0 0.1
2017-Aug-09 05:29N 49°17' W 123°05'0 0.1
2017-Aug-09 04:59N 49°17' W 123°05'0 0.0
2017-Aug-09 04:29N 49°17' W 123°05'0 0.1
2017-Aug-09 03:59N 49°17' W 123°05'0 0.0
2017-Aug-09 03:29N 49°17' W 123°05'0 0.1
2017-Aug-09 02:59N 49°17' W 123°05'0 0.0
2017-Aug-09 02:29N 49°17' W 123°05'0 0.1
2017-Aug-09 01:59N 49°17' W 123°05'0 0.0
2017-Aug-09 01:29N 49°17' W 123°05'0 0.0
2017-Aug-09 00:59N 49°17' W 123°05'0 0.1
2017-Aug-09 00:29N 49°17' W 123°05'0 0.0
2017-Aug-08 23:59N 49°17' W 123°05'0 0.1
2017-Aug-08 23:29N 49°17' W 123°05'0 0.1
2017-Aug-08 22:59N 49°17' W 123°05'0 0.0
2017-Aug-08 22:29N 49°17' W 123°05'0 0.0
2017-Aug-08 21:59N 49°17' W 123°05'0 0.0
2017-Aug-08 21:29N 49°17' W 123°05'0 0.0
2017-Aug-08 20:59N 49°17' W 123°05'0 0.0
2017-Aug-08 20:29N 49°17' W 123°05'0 0.1
2017-Aug-08 19:59N 49°17' W 123°05'0 0.1
2017-Aug-08 19:29N 49°17' W 123°05'0 0.1
2017-Aug-08 18:59N 49°17' W 123°05'0 0.1
2017-Aug-08 18:29N 49°17' W 123°05'0 0.0
2017-Aug-08 17:59N 49°17' W 123°05'0 0.1
2017-Aug-08 17:29N 49°17' W 123°05'0 0.1
2017-Aug-08 16:59N 49°17' W 123°05'0 0.0
2017-Aug-08 16:29N 49°17' W 123°05'0 0.0
2017-Aug-08 15:59N 49°17' W 123°05'0 0.1
2017-Aug-08 15:29N 49°17' W 123°05'0 0.1
2017-Aug-08 14:59N 49°17' W 123°05'0 0.0
2017-Aug-08 14:29N 49°17' W 123°05'0 0.0
2017-Aug-08 13:59N 49°17' W 123°05'0 0.0
2017-Aug-08 13:29N 49°17' W 123°05'0 0.0
2017-Aug-08 12:59N 49°17' W 123°05'0 0.1
2017-Aug-08 12:29N 49°17' W 123°05'0 0.1
2017-Aug-08 11:59N 49°17' W 123°05'0 0.1
2017-Aug-08 11:29N 49°17' W 123°05'0 0.1
2017-Aug-08 10:59N 49°17' W 123°05'0 0.0
2017-Aug-08 10:29N 49°17' W 123°05'0 0.1
2017-Aug-08 09:59N 49°17' W 123°05'0 0.0
2017-Aug-08 09:29N 49°17' W 123°05'0 0.1
2017-Aug-08 08:59N 49°17' W 123°05'0 0.0
2017-Aug-08 08:29N 49°17' W 123°05'0 0.1
2017-Aug-08 07:59N 49°17' W 123°05'0 0.1
2017-Aug-08 07:29N 49°17' W 123°05'0 0.0
2017-Aug-08 06:59N 49°17' W 123°05'0 0.1
2017-Aug-08 06:29N 49°17' W 123°05'0 0.0
2017-Aug-08 05:59N 49°17' W 123°05'0 0.0
2017-Aug-08 05:29N 49°17' W 123°05'0 0.1
2017-Aug-08 04:59N 49°17' W 123°05'0 0.1
2017-Aug-08 04:29N 49°17' W 123°05'0 0.1
2017-Aug-08 03:59N 49°17' W 123°05'0 0.0
2017-Aug-08 03:29N 49°17' W 123°05'0 0.0
2017-Aug-08 02:59N 49°17' W 123°05'0 0.0
2017-Aug-08 02:29N 49°17' W 123°05'0 0.0
2017-Aug-08 01:59N 49°17' W 123°05'0 0.1
2017-Aug-08 01:29N 49°17' W 123°05'0 0.1
2017-Aug-08 00:59N 49°17' W 123°05'0 0.1
2017-Aug-08 00:29N 49°17' W 123°05'0 0.1
2017-Aug-07 23:59N 49°17' W 123°05'0 0.0
2017-Aug-07 23:29N 49°17' W 123°05'0 0.1
2017-Aug-07 22:59N 49°17' W 123°05'0 0.1
2017-Aug-07 22:30N 49°17' W 123°05'1 1.0
2017-Aug-07 22:00N 49°18' W 123°06'1 1.2
2017-Aug-07 21:30N 49°18' W 123°06'2 4.8
2017-Aug-07 21:00N 49°19' W 123°10'611.6
2017-Aug-07 20:30N 49°16' W 123°18'815.2
2017-Aug-07 20:00N 49°09' W 123°20'713.1
2017-Aug-07 19:30N 49°02' W 123°18'714.0
2017-Aug-07 19:01N 48°58' W 123°11'713.8
2017-Aug-07 18:30N 48°53' W 123°03'612.5
2017-Aug-07 18:00N 48°47' W 123°01'611.6
2017-Aug-07 17:30N 48°44' W 123°09'510.8
2017-Aug-07 17:00N 48°40' W 123°14'612.0
2017-Aug-07 16:31N 48°34' W 123°12'510.9
2017-Aug-07 16:00N 48°29' W 123°10'510.6
2017-Aug-07 15:31N 48°24' W 123°13'612.2
2017-Aug-07 15:01N 48°22' W 123°22'3 5.3
2017-Aug-07 14:31N 48°20' W 123°24'5 9.7
2017-Aug-07 14:00N 48°15' W 123°27'612.3
2017-Aug-07 13:29N 48°14' W 123°36'612.9
2017-Aug-07 13:00N 48°14' W 123°46'713.0
2017-Aug-07 12:30N 48°14' W 123°55'613.0
2017-Aug-07 12:00N 48°16' W 124°04'613.0
2017-Aug-07 11:30N 48°19' W 124°13'713.2
2017-Aug-07 11:00N 48°22' W 124°22'713.0
2017-Aug-07 10:30N 48°25' W 124°31'612.8
2017-Aug-07 10:00N 48°27' W 124°40'612.5
2017-Aug-07 09:30N 48°29' W 124°49'713.1
2017-Aug-07 09:00N 48°29' W 124°59'613.0
2017-Aug-07 08:30N 48°28' W 125°09'611.4
2017-Aug-07 08:00N 48°26' W 125°17'510.9
2017-Aug-07 07:30N 48°24' W 125°24'3 4.3
2017-Aug-07 06:54N 48°24' W 125°28'0 1.0
2017-Aug-07 06:30N 48°24' W 125°28'0 0.6
2017-Aug-07 05:59N 48°24' W 125°29'2 3.4
2017-Aug-07 05:30N 48°22' W 125°28'0 0.7
2017-Aug-07 05:00N 48°22' W 125°29'1 1.2
2017-Aug-07 04:30N 48°23' W 125°29'1 1.2
2017-Aug-07 04:00N 48°23' W 125°30'1 1.3
2017-Aug-07 03:29N 48°24' W 125°31'0 1.0
2017-Aug-07 03:00N 48°23' W 125°30'2 3.9
2017-Aug-07 02:30N 48°22' W 125°29'1 1.5
2017-Aug-07 02:00N 48°22' W 125°29'1 1.6
2017-Aug-07 01:30N 48°23' W 125°30'  

Dump ship's entire track history